createdAt,value
2023-03-28T00:00:51.065Z,88.80
2023-03-28T00:03:22.580Z,88.25
2023-03-28T00:05:51.373Z,86.13
2023-03-28T00:08:18.362Z,86.70
2023-03-28T00:10:45.619Z,86.32
2023-03-28T00:13:14.037Z,86.46
2023-03-28T00:15:41.992Z,85.67
2023-03-28T00:18:12.265Z,85.72
2023-03-28T00:20:40.410Z,84.86
2023-03-28T00:23:08.111Z,86.49
2023-03-28T00:25:35.621Z,84.96
2023-03-28T00:28:02.540Z,85.66
2023-03-28T00:30:29.644Z,85.89
2023-03-28T00:32:57.538Z,85.04
2023-03-28T00:35:24.312Z,86.18
2023-03-28T00:37:53.260Z,84.45
2023-03-28T00:40:19.647Z,83.87
2023-03-28T00:42:46.542Z,83.41
2023-03-28T00:45:13.037Z,84.44
2023-03-28T00:47:46.159Z,83.49
2023-03-28T00:50:20.881Z,82.79
2023-03-28T00:52:50.954Z,83.83
2023-03-28T00:55:27.506Z,83.75
2023-03-28T00:57:54.455Z,84.13
2023-03-28T01:00:21.637Z,82.16
2023-03-28T01:02:52.333Z,82.66
2023-03-28T01:05:26.706Z,83.96
2023-03-28T01:07:59.287Z,82.88
2023-03-28T01:10:26.058Z,82.33
2023-03-28T01:12:54.412Z,82.02
2023-03-28T01:15:21.114Z,82.90
2023-03-28T01:17:48.127Z,82.11
2023-03-28T01:20:46.675Z,83.94
2023-03-28T01:23:31.161Z,84.51
2023-03-28T01:26:12.387Z,85.01
2023-03-28T01:29:10.590Z,83.85
2023-03-28T01:31:52.172Z,82.41
2023-03-28T01:34:27.602Z,83.17
2023-03-28T01:37:16.372Z,81.50
2023-03-28T01:39:59.215Z,81.65
2023-03-28T01:42:45.129Z,80.27
2023-03-28T01:45:36.977Z,80.37
2023-03-28T01:48:17.771Z,79.47
2023-03-28T01:51:13.556Z,79.13
2023-03-28T01:53:51.118Z,80.17
2023-03-28T01:56:30.663Z,80.64
2023-03-28T01:59:09.105Z,81.28
2023-03-28T02:02:01.676Z,79.29
2023-03-28T02:04:29.227Z,80.30
2023-03-28T02:06:56.633Z,82.24
2023-03-28T02:09:25.111Z,81.40
2023-03-28T02:11:56.444Z,80.78
2023-03-28T02:14:26.382Z,81.17
2023-03-28T02:16:57.484Z,81.83
2023-03-28T02:19:26.984Z,81.16
2023-03-28T02:22:12.288Z,82.34
2023-03-28T02:24:38.874Z,81.16
2023-03-28T02:27:08.439Z,80.61
2023-03-28T02:29:36.829Z,82.30
2023-03-28T02:32:03.619Z,81.53
2023-03-28T02:34:31.249Z,82.72
2023-03-28T02:37:11.880Z,82.74
2023-03-28T02:39:44.859Z,82.45
2023-03-28T02:42:29.938Z,84.94
2023-03-28T02:45:17.962Z,86.82
2023-03-28T02:48:05.880Z,87.74
2023-03-28T02:50:53.685Z,86.16
2023-03-28T02:53:27.241Z,86.72
2023-03-28T02:55:56.993Z,87.54
2023-03-28T02:58:30.462Z,87.65
2023-03-28T03:00:56.997Z,88.61
2023-03-28T03:03:23.748Z,88.88
2023-03-28T03:05:50.710Z,88.57
2023-03-28T03:08:17.348Z,89.50
2023-03-28T03:10:43.756Z,89.28
2023-03-28T03:13:10.663Z,89.30
2023-03-28T03:15:37.154Z,89.08
2023-03-28T03:18:04.520Z,89.68
2023-03-28T03:20:34.366Z,89.65
2023-03-28T03:23:01.737Z,89.52
2023-03-28T03:25:28.525Z,89.41
2023-03-28T03:27:55.027Z,89.61
2023-03-28T03:30:21.993Z,89.38
2023-03-28T03:32:48.496Z,90.36
2023-03-28T03:35:15.682Z,90.41
2023-03-28T03:37:42.190Z,90.20
2023-03-28T03:40:09.822Z,90.69
2023-03-28T03:42:37.061Z,90.15
2023-03-28T03:45:04.306Z,92.13
2023-03-28T03:47:31.068Z,91.35
2023-03-28T03:49:57.758Z,91.33
2023-03-28T03:52:24.316Z,91.12
2023-03-28T03:54:50.742Z,90.88
2023-03-28T03:57:17.594Z,91.29
2023-03-28T03:59:44.170Z,91.24
2023-03-28T04:02:12.060Z,90.88
2023-03-28T04:04:40.480Z,91.31
2023-03-28T04:07:07.223Z,91.42
2023-03-28T04:09:33.678Z,91.12
2023-03-28T04:12:00.263Z,90.16
2023-03-28T04:14:26.942Z,91.15
2023-03-28T04:16:53.840Z,91.21
2023-03-28T04:19:21.095Z,90.40
2023-03-28T04:21:48.888Z,90.79
2023-03-28T04:24:16.379Z,88.53
2023-03-28T04:26:49.719Z,89.08
2023-03-28T04:29:17.304Z,88.77
2023-03-28T04:31:50.001Z,90.13
2023-03-28T04:34:17.166Z,89.33
2023-03-28T04:36:43.845Z,89.65
2023-03-28T04:39:11.274Z,90.53
2023-03-28T04:41:38.908Z,90.04
2023-03-28T04:44:06.001Z,91.71
2023-03-28T04:46:32.510Z,90.76
2023-03-28T04:48:59.286Z,90.88
2023-03-28T04:51:28.467Z,90.44
2023-03-28T04:53:55.202Z,91.77
2023-03-28T04:56:22.202Z,91.26
2023-03-28T04:58:49.158Z,90.30
2023-03-28T05:01:16.092Z,89.69
2023-03-28T05:03:42.630Z,88.91
2023-03-28T05:06:09.410Z,89.63
2023-03-28T05:08:35.927Z,89.18
2023-03-28T05:11:02.611Z,89.28
2023-03-28T05:13:29.321Z,90.49
2023-03-28T05:15:55.911Z,90.72
2023-03-28T05:18:22.456Z,90.34
2023-03-28T05:20:48.878Z,91.44
2023-03-28T05:23:15.343Z,91.61
2023-03-28T05:25:41.817Z,90.79
2023-03-28T05:28:08.381Z,90.99
2023-03-28T05:30:34.959Z,89.86
2023-03-28T05:33:01.995Z,89.06
2023-03-28T05:35:28.654Z,88.80
2023-03-28T05:37:55.364Z,90.41
2023-03-28T05:40:22.098Z,89.28
2023-03-28T05:42:48.592Z,89.98
2023-03-28T05:45:15.702Z,89.01
2023-03-28T05:47:42.326Z,88.79
2023-03-28T05:50:10.657Z,88.31
2023-03-28T05:52:37.751Z,87.64
2023-03-28T05:55:04.864Z,87.58
2023-03-28T05:57:31.407Z,86.57
2023-03-28T05:59:57.935Z,85.64
2023-03-28T06:02:25.109Z,86.14
2023-03-28T06:04:55.237Z,86.21
2023-03-28T06:07:35.328Z,85.19
2023-03-28T06:10:08.858Z,83.36
2023-03-28T06:12:35.488Z,85.07
2023-03-28T06:15:02.141Z,83.12
2023-03-28T06:17:28.939Z,81.75
2023-03-28T06:19:55.663Z,82.28
2023-03-28T06:22:22.297Z,82.01
2023-03-28T06:24:48.847Z,81.05
2023-03-28T06:27:15.441Z,79.76
2023-03-28T06:29:42.004Z,77.54
2023-03-28T06:32:08.979Z,76.53
2023-03-28T06:34:35.715Z,73.99
2023-03-28T06:37:02.259Z,68.61
2023-03-28T06:39:28.701Z,67.26
2023-03-28T06:41:55.397Z,69.21
2023-03-28T06:44:21.859Z,69.84
2023-03-28T06:46:49.663Z,70.78
2023-03-28T06:49:16.196Z,71.11
2023-03-28T06:51:42.761Z,72.14
2023-03-28T06:54:09.303Z,71.21
2023-03-28T06:56:35.940Z,72.16
2023-03-28T06:59:02.463Z,71.33
2023-03-28T07:01:29.350Z,69.17
2023-03-28T07:03:59.400Z,67.62
2023-03-28T07:06:27.489Z,66.22
2023-03-28T07:08:55.114Z,66.07
2023-03-28T07:11:21.743Z,60.54
2023-03-28T07:13:49.340Z,55.81
2023-03-28T07:16:16.213Z,52.55
2023-03-28T07:18:43.739Z,54.80
2023-03-28T07:21:15.939Z,57.73
2023-03-28T07:23:43.251Z,60.13
2023-03-28T07:26:11.799Z,58.69
2023-03-28T07:28:38.308Z,58.12
2023-03-28T07:31:05.474Z,60.05
2023-03-28T07:33:37.380Z,59.72
2023-03-28T07:36:10.207Z,58.86
2023-03-28T07:38:36.776Z,57.10
2023-03-28T07:41:04.046Z,55.08
2023-03-28T07:43:30.534Z,53.98
2023-03-28T07:46:06.502Z,51.76
2023-03-28T07:48:35.373Z,50.73
2023-03-28T07:51:02.807Z,49.65
2023-03-28T07:53:29.577Z,47.28
2023-03-28T07:55:56.505Z,47.42
2023-03-28T07:58:23.108Z,48.57
2023-03-28T08:00:50.618Z,48.72
2023-03-28T08:03:17.488Z,46.60
2023-03-28T08:05:49.516Z,44.00
2023-03-28T08:08:16.595Z,42.19
2023-03-28T08:10:45.861Z,44.03
2023-03-28T08:13:12.674Z,45.27
2023-03-28T08:15:39.235Z,43.79
2023-03-28T08:18:05.994Z,42.30
2023-03-28T08:20:32.983Z,43.33
2023-03-28T08:22:59.530Z,41.34
2023-03-28T08:25:26.218Z,43.56
2023-03-28T08:27:52.786Z,47.34
2023-03-28T08:30:19.250Z,48.24
2023-03-28T08:32:48.724Z,47.36
2023-03-28T08:35:15.726Z,46.04
2023-03-28T08:37:42.294Z,43.44
2023-03-28T08:40:14.200Z,44.32
2023-03-28T08:43:04.737Z,44.48
2023-03-28T08:45:53.686Z,44.53
2023-03-28T08:48:37.483Z,43.11
2023-03-28T08:51:19.234Z,39.47
2023-03-28T08:54:12.926Z,36.22
2023-03-28T08:56:49.940Z,39.44
2023-03-28T08:59:23.823Z,41.64
2023-03-28T09:01:50.553Z,42.74
2023-03-28T09:04:27.266Z,39.42
2023-03-28T09:07:00.169Z,36.22
2023-03-28T09:09:53.687Z,35.77
2023-03-28T09:12:35.531Z,36.58
2023-03-28T09:15:11.357Z,35.09
2023-03-28T09:17:55.931Z,39.36
2023-03-28T09:20:29.538Z,39.83
2023-03-28T09:23:08.526Z,37.70
2023-03-28T09:25:46.404Z,35.20
2023-03-28T09:28:47.918Z,35.18
2023-03-28T09:31:17.373Z,37.22
2023-03-28T09:33:47.664Z,37.36
2023-03-28T09:36:21.719Z,36.56
2023-03-28T09:38:52.483Z,34.44
2023-03-28T09:41:27.383Z,31.54
2023-03-28T09:43:58.611Z,32.29
2023-03-28T09:46:44.538Z,33.69
2023-03-28T09:49:19.613Z,34.35
2023-03-28T09:51:46.422Z,34.56
2023-03-28T09:54:13.514Z,33.16
2023-03-28T09:56:42.325Z,31.72
2023-03-28T09:59:29.885Z,32.63
2023-03-28T10:01:58.077Z,35.30
2023-03-28T10:04:28.190Z,35.71
2023-03-28T10:07:16.626Z,35.45
2023-03-28T10:09:54.250Z,37.22
2023-03-28T10:12:24.402Z,36.99
2023-03-28T10:14:50.892Z,36.23
2023-03-28T10:17:27.129Z,34.25
2023-03-28T10:19:59.438Z,30.87
2023-03-28T10:22:37.734Z,30.10
2023-03-28T10:25:05.960Z,31.56
2023-03-28T10:27:40.023Z,33.42
2023-03-28T10:30:21.947Z,32.92
2023-03-28T10:33:07.022Z,32.11
2023-03-28T10:35:33.982Z,30.71
2023-03-28T10:38:04.761Z,30.10
2023-03-28T10:40:32.464Z,27.93
2023-03-28T10:42:59.304Z,27.55
2023-03-28T10:45:38.040Z,28.42
2023-03-28T10:48:17.311Z,26.98
2023-03-28T10:50:46.291Z,26.78
2023-03-28T10:53:37.188Z,26.75
2023-03-28T10:56:41.503Z,30.74
2023-03-28T10:59:49.032Z,30.99
2023-03-28T11:02:20.003Z,31.95
2023-03-28T11:04:56.956Z,32.73
2023-03-28T11:07:45.459Z,32.64
2023-03-28T11:10:34.083Z,27.13
2023-03-28T11:13:13.325Z,27.79
2023-03-28T11:15:54.159Z,26.84
2023-03-28T11:18:51.116Z,28.85
2023-03-28T11:21:33.049Z,29.08
2023-03-28T11:24:20.785Z,28.83
2023-03-28T11:27:15.690Z,27.87
2023-03-28T11:30:16.719Z,27.03
2023-03-28T11:32:57.636Z,27.84
2023-03-28T11:35:31.012Z,28.20
2023-03-28T11:38:04.447Z,27.31
2023-03-28T11:40:47.036Z,25.38
2023-03-28T11:43:16.873Z,27.97
2023-03-28T11:45:52.029Z,28.03
2023-03-28T11:48:23.525Z,27.37
2023-03-28T11:51:32.025Z,29.03
2023-03-28T11:54:05.315Z,28.26
2023-03-28T11:56:51.029Z,27.37
2023-03-28T11:59:42.784Z,28.45
2023-03-28T12:02:23.349Z,27.09
2023-03-28T12:04:57.331Z,27.43
2023-03-28T12:07:36.074Z,27.56
2023-03-28T12:10:11.165Z,28.46
2023-03-28T12:12:44.003Z,27.96
2023-03-28T12:15:20.386Z,28.85
2023-03-28T12:17:50.212Z,27.87
2023-03-28T12:20:43.943Z,30.29
2023-03-28T12:23:23.816Z,29.75
2023-03-28T12:26:00.133Z,28.56
2023-03-28T12:28:45.395Z,31.59
2023-03-28T12:31:38.458Z,30.84
2023-03-28T12:34:12.184Z,32.93
2023-03-28T12:37:01.750Z,31.24
2023-03-28T12:39:43.429Z,30.06
2023-03-28T12:42:13.159Z,30.30
2023-03-28T12:44:46.470Z,32.02
2023-03-28T12:47:17.442Z,32.73
2023-03-28T12:50:15.088Z,33.31
2023-03-28T12:52:43.884Z,34.77
2023-03-28T12:55:26.149Z,35.21
2023-03-28T12:57:54.694Z,35.74
2023-03-28T13:00:24.546Z,35.09
2023-03-28T13:03:16.411Z,36.00
2023-03-28T13:05:55.984Z,35.89
2023-03-28T13:08:47.298Z,37.41
2023-03-28T13:11:25.454Z,36.34
2023-03-28T13:14:16.989Z,34.31
2023-03-28T13:16:58.039Z,33.63
2023-03-28T13:19:46.586Z,35.51
2023-03-28T13:22:28.810Z,36.03
2023-03-28T13:25:25.877Z,37.28
2023-03-28T13:28:12.278Z,37.44
2023-03-28T13:30:46.643Z,37.23
2023-03-28T13:33:26.452Z,36.03
2023-03-28T13:35:58.974Z,35.45
2023-03-28T13:38:28.309Z,35.08
2023-03-28T13:41:09.825Z,34.73
2023-03-28T13:43:48.507Z,34.04
2023-03-28T13:46:29.433Z,35.18
2023-03-28T13:49:16.319Z,37.08
2023-03-28T13:51:58.629Z,37.36
2023-03-28T13:54:28.279Z,37.59
2023-03-28T13:57:01.746Z,38.65
2023-03-28T13:59:39.284Z,38.27
2023-03-28T14:02:42.851Z,37.04
2023-03-28T14:05:27.087Z,39.69
2023-03-28T14:07:55.472Z,39.37
2023-03-28T14:10:31.138Z,37.85
2023-03-28T14:13:01.388Z,36.72
2023-03-28T14:15:30.502Z,36.12
2023-03-28T14:17:58.591Z,35.89
2023-03-28T14:20:26.429Z,34.31
2023-03-28T14:23:00.360Z,33.98
2023-03-28T14:25:28.663Z,32.83
2023-03-28T14:27:56.758Z,33.50
2023-03-28T14:30:39.944Z,32.96
2023-03-28T14:33:14.789Z,35.63
2023-03-28T14:35:48.299Z,34.48
2023-03-28T14:38:28.036Z,36.17
2023-03-28T14:40:55.843Z,35.05
2023-03-28T14:43:31.740Z,36.51
2023-03-28T14:46:03.509Z,36.94
2023-03-28T14:48:30.418Z,37.03
2023-03-28T14:50:59.014Z,36.18
2023-03-28T14:53:27.781Z,35.29
2023-03-28T14:55:58.731Z,35.69
2023-03-28T14:58:27.686Z,34.69
2023-03-28T15:00:58.196Z,33.13
2023-03-28T15:03:35.158Z,33.92
2023-03-28T15:06:02.356Z,34.55
2023-03-28T15:08:35.910Z,34.50
2023-03-28T15:11:15.443Z,36.72
2023-03-28T15:13:51.269Z,37.12
2023-03-28T15:16:23.511Z,37.62
2023-03-28T15:19:23.285Z,38.32
2023-03-28T15:21:55.434Z,38.88
2023-03-28T15:24:22.377Z,39.78
2023-03-28T15:26:51.325Z,38.42
2023-03-28T15:29:19.214Z,40.53
2023-03-28T15:31:46.389Z,39.98
2023-03-28T15:34:24.794Z,39.59
2023-03-28T15:36:57.764Z,39.26
2023-03-28T15:39:27.179Z,40.03
2023-03-28T15:42:20.297Z,40.60
2023-03-28T15:44:58.991Z,40.28
2023-03-28T15:47:29.407Z,40.46
2023-03-28T15:50:03.321Z,40.36
2023-03-28T15:52:31.055Z,40.01
2023-03-28T15:54:58.947Z,40.61
2023-03-28T15:57:27.567Z,41.19
2023-03-28T15:59:56.090Z,42.92
2023-03-28T16:02:22.684Z,42.89
2023-03-28T16:05:06.253Z,43.34
2023-03-28T16:07:45.864Z,42.97
2023-03-28T16:10:14.970Z,42.06
2023-03-28T16:12:41.848Z,43.48
2023-03-28T16:15:08.941Z,43.46
2023-03-28T16:17:36.334Z,43.91
2023-03-28T16:20:12.973Z,43.18
2023-03-28T16:22:39.734Z,45.28
2023-03-28T16:25:06.890Z,44.23
2023-03-28T16:27:35.368Z,45.45
2023-03-28T16:30:04.348Z,46.42
2023-03-28T16:32:31.015Z,46.11
2023-03-28T16:34:57.615Z,46.87
2023-03-28T16:37:24.051Z,47.71
2023-03-28T16:39:50.538Z,48.15
2023-03-28T16:42:18.284Z,49.20
2023-03-28T16:44:44.776Z,49.97
2023-03-28T16:47:11.310Z,51.08
2023-03-28T16:49:37.908Z,50.81
2023-03-28T16:52:05.235Z,51.73
2023-03-28T16:54:31.816Z,51.73
2023-03-28T16:56:58.389Z,53.16
2023-03-28T16:59:24.982Z,53.38
2023-03-28T17:01:52.173Z,53.48
2023-03-28T17:04:18.747Z,54.83
2023-03-28T17:06:45.743Z,55.44
2023-03-28T17:09:12.465Z,55.35
2023-03-28T17:11:40.324Z,56.03
2023-03-28T17:14:06.825Z,56.49
2023-03-28T17:16:33.464Z,56.67
2023-03-28T17:18:59.916Z,57.06
2023-03-28T17:21:26.481Z,57.49
2023-03-28T17:23:53.245Z,57.20
2023-03-28T17:26:19.810Z,58.38
2023-03-28T17:28:46.619Z,59.14
2023-03-28T17:31:16.798Z,59.38
2023-03-28T17:33:44.027Z,59.31
2023-03-28T17:36:22.050Z,60.50
2023-03-28T17:38:50.370Z,60.05
2023-03-28T17:41:17.437Z,60.23
2023-03-28T17:43:44.040Z,61.60
2023-03-28T17:46:11.950Z,62.30
2023-03-28T17:48:39.202Z,63.18
2023-03-28T17:51:06.171Z,62.47
2023-03-28T17:53:33.521Z,63.06
2023-03-28T17:56:00.427Z,63.33
2023-03-28T17:58:27.821Z,63.61
2023-03-28T18:00:54.397Z,64.68
2023-03-28T18:03:21.690Z,64.44
2023-03-28T18:05:50.017Z,64.41
2023-03-28T18:08:16.815Z,66.38
2023-03-28T18:10:43.435Z,65.65
2023-03-28T18:13:09.899Z,66.36
2023-03-28T18:15:36.340Z,66.22
2023-03-28T18:18:02.995Z,66.16
2023-03-28T18:20:29.597Z,67.31
2023-03-28T18:22:56.119Z,67.72
2023-03-28T18:25:23.140Z,67.96
2023-03-28T18:27:49.701Z,68.74
2023-03-28T18:30:16.218Z,69.13
2023-03-28T18:32:43.193Z,69.23
2023-03-28T18:35:10.178Z,68.85
2023-03-28T18:37:36.796Z,69.98
2023-03-28T18:40:07.542Z,69.54
2023-03-28T18:42:35.813Z,70.01
2023-03-28T18:45:03.352Z,70.33
2023-03-28T18:47:29.872Z,70.59
2023-03-28T18:49:56.871Z,70.49
2023-03-28T18:52:23.480Z,70.98
2023-03-28T18:54:51.084Z,71.31
2023-03-28T18:57:17.546Z,72.06
2023-03-28T18:59:44.551Z,71.77
2023-03-28T19:02:14.004Z,71.94
2023-03-28T19:04:40.632Z,72.43
2023-03-28T19:07:08.518Z,72.52
2023-03-28T19:09:35.205Z,72.42
2023-03-28T19:12:01.856Z,72.93
2023-03-28T19:14:28.481Z,74.10
2023-03-28T19:16:55.254Z,73.71
2023-03-28T19:19:23.425Z,73.59
2023-03-28T19:21:51.788Z,73.99
2023-03-28T19:24:21.264Z,74.30
2023-03-28T19:26:48.630Z,74.70
2023-03-28T19:29:15.949Z,74.36
2023-03-28T19:31:42.899Z,74.53
2023-03-28T19:34:20.125Z,74.08
2023-03-28T19:36:47.429Z,74.37
2023-03-28T19:39:14.260Z,74.78
2023-03-28T19:41:41.045Z,75.14
2023-03-28T19:44:07.606Z,75.12
2023-03-28T19:46:36.413Z,75.48
2023-03-28T19:49:06.335Z,75.58
2023-03-28T19:51:33.578Z,75.83
2023-03-28T19:54:00.440Z,75.82
2023-03-28T19:56:28.440Z,76.63
2023-03-28T19:58:54.955Z,76.71
2023-03-28T20:01:22.203Z,76.97
2023-03-28T20:03:52.820Z,76.61
2023-03-28T20:06:21.358Z,76.78
2023-03-28T20:08:48.071Z,76.90
2023-03-28T20:11:15.313Z,77.60
2023-03-28T20:13:41.765Z,77.26
2023-03-28T20:16:10.088Z,77.92
2023-03-28T20:18:37.195Z,78.01
2023-03-28T20:21:06.750Z,78.23
2023-03-28T20:23:34.041Z,78.49
2023-03-28T20:26:01.627Z,78.97
2023-03-28T20:28:32.543Z,79.31
2023-03-28T20:30:59.391Z,79.62
2023-03-28T20:33:26.303Z,79.58
2023-03-28T20:35:54.302Z,79.16
2023-03-28T20:38:21.306Z,79.59
2023-03-28T20:40:47.895Z,80.03
2023-03-28T20:43:19.836Z,79.77
2023-03-28T20:45:54.307Z,79.91
2023-03-28T20:48:25.940Z,79.80
2023-03-28T20:50:55.094Z,79.53
2023-03-28T20:53:22.421Z,79.61
2023-03-28T20:55:50.203Z,79.51
2023-03-28T20:58:16.852Z,79.84
2023-03-28T21:00:43.742Z,79.90
2023-03-28T21:03:11.337Z,80.23
2023-03-28T21:05:42.204Z,80.02
2023-03-28T21:08:08.708Z,80.25
2023-03-28T21:10:36.423Z,80.01
2023-03-28T21:13:02.920Z,80.13
2023-03-28T21:15:30.566Z,79.65
2023-03-28T21:17:58.593Z,80.38
2023-03-28T21:20:25.022Z,80.64
2023-03-28T21:22:51.548Z,80.23
2023-03-28T21:25:18.510Z,80.43
2023-03-28T21:27:45.054Z,80.48
2023-03-28T21:30:13.779Z,80.82
2023-03-28T21:32:41.000Z,80.68
2023-03-28T21:35:07.959Z,80.81
2023-03-28T21:37:34.536Z,81.88
2023-03-28T21:40:01.169Z,81.62
2023-03-28T21:42:27.891Z,81.96
2023-03-28T21:44:54.355Z,81.36
2023-03-28T21:47:21.013Z,81.92
2023-03-28T21:49:49.431Z,82.39
2023-03-28T21:52:16.289Z,82.46
2023-03-28T21:54:42.729Z,82.37
2023-03-28T21:57:09.807Z,82.90
2023-03-28T21:59:36.492Z,83.02
2023-03-28T22:02:03.137Z,83.18
2023-03-28T22:04:29.652Z,83.95
2023-03-28T22:06:56.584Z,83.40
2023-03-28T22:09:23.161Z,83.64
2023-03-28T22:11:49.668Z,84.04
2023-03-28T22:14:16.231Z,83.29
2023-03-28T22:16:42.774Z,83.24
2023-03-28T22:19:09.728Z,83.52
2023-03-28T22:21:37.183Z,83.81
2023-03-28T22:24:06.600Z,83.29
2023-03-28T22:26:33.370Z,83.00
2023-03-28T22:28:59.902Z,83.09
2023-03-28T22:31:27.115Z,82.86
2023-03-28T22:33:54.297Z,82.75
2023-03-28T22:36:21.036Z,83.00
2023-03-28T22:38:47.555Z,83.13
2023-03-28T22:41:14.253Z,83.13
2023-03-28T22:43:43.429Z,82.88
2023-03-28T22:46:12.601Z,83.18
2023-03-28T22:48:39.848Z,83.20
2023-03-28T22:51:11.698Z,83.91
2023-03-28T22:53:39.801Z,82.93
2023-03-28T22:56:06.852Z,83.43
2023-03-28T22:58:34.014Z,82.75
2023-03-28T23:01:01.086Z,82.39
2023-03-28T23:03:28.207Z,82.66
2023-03-28T23:05:55.095Z,82.64
2023-03-28T23:08:22.225Z,83.00
2023-03-28T23:10:48.929Z,82.63
2023-03-28T23:13:16.353Z,83.01
2023-03-28T23:15:43.696Z,83.23
2023-03-28T23:18:10.884Z,83.50
2023-03-28T23:20:38.245Z,83.08
2023-03-28T23:23:04.822Z,82.89
2023-03-28T23:25:31.352Z,83.38
2023-03-28T23:27:57.945Z,83.12
2023-03-28T23:30:24.452Z,83.32
2023-03-28T23:32:51.201Z,82.26
2023-03-28T23:35:18.062Z,82.46
2023-03-28T23:37:44.809Z,81.85
2023-03-28T23:40:14.818Z,80.66
2023-03-28T23:42:43.738Z,80.26
2023-03-28T23:45:11.794Z,81.63
2023-03-28T23:47:38.689Z,81.47
2023-03-28T23:50:06.618Z,80.80
2023-03-28T23:52:33.390Z,80.03
2023-03-28T23:55:00.134Z,79.64
2023-03-28T23:57:28.542Z,79.58
2023-03-28T23:59:56.400Z,80.26
